Loving, New Mexico
Current Conditions -  °F | °C
As of 5:53 PM on Monday 20 Oct 2014 (Local Time) from KCNM Reporting Station
Light Rain Light Rain  
Wind Chill: 62°   Ceiling: 7500
Heat Index: 62°   Visibility: 4mi
Dew Point: 59°   Wind: 0mph
Humidity: 90%   Direction: NA
Pressure: 30.06"   Gusts: NA
Location:  32.29°N, 104.1°W
Report Text: KCNM 202353Z AUTO 00000KT 4SM -RA BR FEW030 BKN075 OVC090 17/15 A3006 RMK AO2 LTG DSNT W-NE SLP144 P0035 60036 T01670150 10222 20161 53008
Loading
Personal Weather Stations






























Interactive Weather Map
Tropical Storm Tracking
New forecast layout! Learn more

10-Day Weather Forecast

Advertisements
Track Severe Weather on mobile